首页
METAR-TAF:

METAR-TAF

机场 :

Lakenheath, 英格兰

纬度: 52-25N, 经度: 000-34E, 海拔: 10米

当前天气观测

该预报发布于48分钟前的00:56 UTC
风速5节,风向东南
温度 7°C
湿度 61%
气压 1013 hPa
能见度10公里或以上
阴天层高于13000英尺

METAR: EGUL 080056Z AUTO 14005KT 9999 OVC130 07/00 A2991 RMK AO2 SLP132 T00690001 $

时间: 02:44 (01:44 UTC)

预报

该预报发布于10小时和52分钟前的14:52 UTC
预报有效从07日的 14点(UTC)到 08日的 18点(UTC)
风速12节,风向西转西南,有时为20节阵风
能见度10公里或以上
散云层高于2500英尺
多云层高于3500英尺
成为
从 07日的 18点(UTC)到 07日的 19点(UTC)
风速9节,风向西
能见度10公里或以上
多云层高于3000英尺
成为
从 08日的 04点(UTC)到 08日的 05点(UTC)
风速15节,风向南转南东,有时为25节阵风
能見度: 6000
多云层高于1500英尺
多云层高于3000英尺
阵雨
成为
从 08日的 07点(UTC)到 08日的 08点(UTC)
风速20节,风向南转南东,有时为35节阵风
能見度: 8000
多云层高于1500英尺
多云层高于3500英尺
小阵雨
成为
从 08日的 13点(UTC)到 08日的 14点(UTC)
风速15节,风向,有时为25节阵风
能見度: 1004
多云层高于1500英尺
多云层高于3000英尺

TAF: EGUL 071452Z 0714/0818 25012G20KT 9999 SCT025 BKN035 QNH2997INS BECMG 0718/0719 26009KT 9999 BKN030 QNH2996INS BECMG 0804/0805 16015G25KT 6000 SHRA BKN015 BKN030 QNH2984INS BECMG 0807/0808 15020G35KT 8000 -SHRA BKN015 BKN035 510003 QNH2964INS BECMG 0813/0814 19015G25KT 9999 NSW BKN015 BKN030 QNH2954INS TX13/0714Z TN03/0804Z LAST NO AMDS AFT 0714 NEXT 1004

超过4000个机场的气象观测和天气预报(METAR&TAF报告)。

可查询的气象台以黄色和红色小点在地图上表示。

将鼠标移到小点上方,可查看气象台名称。

然后点击查看天气观测和预报。

如需切换地图:点击带黑十字的绿色按钮放大地图;点击带横线的绿色按钮缩小地图;或者点击绿色箭头查看邻近地区的地图。


METAR-TAF: